sensor_id;sensor_type;location;lat;lon;timestamp;P1;durP1;ratioP1;P2;durP2;ratioP2
16478;SDS011;8350;52.316;10.530;2023-04-01T00:02:08;3.95;;;2.30;;
16478;SDS011;8350;52.316;10.530;2023-04-01T00:04:37;3.95;;;1.90;;
16478;SDS011;8350;52.316;10.530;2023-04-01T00:07:04;4.18;;;2.25;;
16478;SDS011;8350;52.316;10.530;2023-04-01T00:09:33;5.05;;;2.05;;
16478;SDS011;8350;52.316;10.530;2023-04-01T00:12:00;3.55;;;1.83;;
16478;SDS011;8350;52.316;10.530;2023-04-01T00:14:27;4.55;;;1.98;;
16478;SDS011;8350;52.316;10.530;2023-04-01T00:16:56;6.65;;;2.47;;
16478;SDS011;8350;52.316;10.530;2023-04-01T00:19:23;4.28;;;1.83;;
16478;SDS011;8350;52.316;10.530;2023-04-01T00:21:50;3.10;;;1.63;;
16478;SDS011;8350;52.316;10.530;2023-04-01T00:24:20;2.75;;;1.60;;
16478;SDS011;8350;52.316;10.530;2023-04-01T00:26:54;4.10;;;1.90;;
16478;SDS011;8350;52.316;10.530;2023-04-01T00:29:22;5.30;;;1.73;;
16478;SDS011;8350;52.316;10.530;2023-04-01T00:31:55;5.03;;;1.30;;
16478;SDS011;8350;52.316;10.530;2023-04-01T00:34:22;4.05;;;1.95;;
16478;SDS011;8350;52.316;10.530;2023-04-01T00:36:50;4.90;;;1.50;;
16478;SDS011;8350;52.316;10.530;2023-04-01T00:39:21;3.67;;;1.70;;
16478;SDS011;8350;52.316;10.530;2023-04-01T00:41:48;3.95;;;1.60;;
16478;SDS011;8350;52.316;10.530;2023-04-01T00:44:15;4.10;;;1.55;;
16478;SDS011;8350;52.316;10.530;2023-04-01T00:46:44;4.47;;;1.63;;
16478;SDS011;8350;52.316;10.530;2023-04-01T00:49:12;3.15;;;1.50;;
16478;SDS011;8350;52.316;10.530;2023-04-01T00:51:42;3.33;;;1.98;;
16478;SDS011;8350;52.316;10.530;2023-04-01T00:54:15;6.70;;;1.92;;
16478;SDS011;8350;52.316;10.530;2023-04-01T00:56:45;4.80;;;2.05;;
16478;SDS011;8350;52.316;10.530;2023-04-01T00:59:18;4.88;;;1.83;;
16478;SDS011;8350;52.316;10.530;2023-04-01T01:01:49;3.55;;;2.00;;
16478;SDS011;8350;52.316;10.530;2023-04-01T01:04:22;3.75;;;1.63;;
16478;SDS011;8350;52.316;10.530;2023-04-01T01:06:54;3.03;;;1.67;;
16478;SDS011;8350;52.316;10.530;2023-04-01T01:09:30;2.90;;;1.83;;
16478;SDS011;8350;52.316;10.530;2023-04-01T01:12:07;4.47;;;1.88;;
16478;SDS011;8350;52.316;10.530;2023-04-01T01:14:45;2.70;;;1.27;;
16478;SDS011;8350;52.316;10.530;2023-04-01T01:17:23;1.92;;;1.40;;
16478;SDS011;8350;52.316;10.530;2023-04-01T01:20:14;2.40;;;1.60;;
16478;SDS011;8350;52.316;10.530;2023-04-01T01:23:21;4.95;;;1.55;;
16478;SDS011;8350;52.316;10.530;2023-04-01T01:26:15;1.80;;;0.90;;
16478;SDS011;8350;52.316;10.530;2023-04-01T01:28:57;3.47;;;1.30;;
16478;SDS011;8350;52.316;10.530;2023-04-01T01:31:33;2.75;;;1.10;;
16478;SDS011;8350;52.316;10.530;2023-04-01T01:34:08;5.00;;;1.13;;
16478;SDS011;8350;52.316;10.530;2023-04-01T01:36:45;2.22;;;0.88;;
16478;SDS011;8350;52.316;10.530;2023-04-01T01:39:15;4.90;;;1.77;;
16478;SDS011;8350;52.316;10.530;2023-04-01T01:41:43;2.97;;;1.08;;
16478;SDS011;8350;52.316;10.530;2023-04-01T01:44:16;3.08;;;1.20;;
16478;SDS011;8350;52.316;10.530;2023-04-01T01:46:45;3.70;;;0.90;;
16478;SDS011;8350;52.316;10.530;2023-04-01T01:49:15;1.50;;;0.80;;
16478;SDS011;8350;52.316;10.530;2023-04-01T01:51:48;4.30;;;0.80;;
16478;SDS011;8350;52.316;10.530;2023-04-01T01:54:15;3.25;;;1.20;;
16478;SDS011;8350;52.316;10.530;2023-04-01T01:56:43;2.53;;;0.88;;
16478;SDS011;8350;52.316;10.530;2023-04-01T01:59:13;2.40;;;0.93;;
16478;SDS011;8350;52.316;10.530;2023-04-01T02:01:43;1.90;;;0.98;;
16478;SDS011;8350;52.316;10.530;2023-04-01T02:04:12;3.47;;;0.90;;
16478;SDS011;8350;52.316;10.530;2023-04-01T02:06:42;2.28;;;1.17;;
16478;SDS011;8350;52.316;10.530;2023-04-01T02:09:14;2.22;;;1.10;;
16478;SDS011;8350;52.316;10.530;2023-04-01T02:11:42;3.75;;;1.30;;
16478;SDS011;8350;52.316;10.530;2023-04-01T02:14:13;3.65;;;1.30;;
16478;SDS011;8350;52.316;10.530;2023-04-01T02:16:47;2.67;;;1.00;;
16478;SDS011;8350;52.316;10.530;2023-04-01T02:19:18;2.22;;;0.90;;
16478;SDS011;8350;52.316;10.530;2023-04-01T02:21:50;3.15;;;1.38;;
16478;SDS011;8350;52.316;10.530;2023-04-01T02:24:24;6.70;;;1.55;;
16478;SDS011;8350;52.316;10.530;2023-04-01T02:26:54;5.35;;;2.58;;
16478;SDS011;8350;52.316;10.530;2023-04-01T02:29:21;6.43;;;2.08;;
16478;SDS011;8350;52.316;10.530;2023-04-01T02:31:51;2.60;;;1.90;;
16478;SDS011;8350;52.316;10.530;2023-04-01T02:34:19;3.08;;;1.80;;
16478;SDS011;8350;52.316;10.530;2023-04-01T02:36:47;4.05;;;1.50;;
16478;SDS011;8350;52.316;10.530;2023-04-01T02:39:15;3.08;;;1.70;;
16478;SDS011;8350;52.316;10.530;2023-04-01T02:41:44;2.13;;;1.48;;
16478;SDS011;8350;52.316;10.530;2023-04-01T02:44:12;2.90;;;1.58;;
16478;SDS011;8350;52.316;10.530;2023-04-01T02:46:40;3.88;;;2.00;;
16478;SDS011;8350;52.316;10.530;2023-04-01T02:49:07;3.13;;;2.08;;
16478;SDS011;8350;52.316;10.530;2023-04-01T02:51:34;6.90;;;2.20;;
16478;SDS011;8350;52.316;10.530;2023-04-01T02:54:01;4.70;;;3.03;;
16478;SDS011;8350;52.316;10.530;2023-04-01T02:56:29;5.22;;;2.90;;
16478;SDS011;8350;52.316;10.530;2023-04-01T02:58:57;5.32;;;2.85;;
16478;SDS011;8350;52.316;10.530;2023-04-01T03:01:24;4.70;;;2.30;;
16478;SDS011;8350;52.316;10.530;2023-04-01T03:03:51;4.38;;;2.17;;
16478;SDS011;8350;52.316;10.530;2023-04-01T03:06:18;4.15;;;2.13;;
16478;SDS011;8350;52.316;10.530;2023-04-01T03:08:45;3.20;;;1.90;;
16478;SDS011;8350;52.316;10.530;2023-04-01T03:11:12;4.18;;;2.00;;
16478;SDS011;8350;52.316;10.530;2023-04-01T03:13:43;5.22;;;2.35;;
16478;SDS011;8350;52.316;10.530;2023-04-01T03:16:11;4.95;;;2.13;;
16478;SDS011;8350;52.316;10.530;2023-04-01T03:18:38;4.53;;;2.42;;
16478;SDS011;8350;52.316;10.530;2023-04-01T03:21:14;4.60;;;1.98;;
16478;SDS011;8350;52.316;10.530;2023-04-01T03:23:43;5.15;;;2.38;;
16478;SDS011;8350;52.316;10.530;2023-04-01T03:26:24;2.67;;;1.60;;
16478;SDS011;8350;52.316;10.530;2023-04-01T03:28:52;5.05;;;2.13;;
16478;SDS011;8350;52.316;10.530;2023-04-01T03:31:21;4.65;;;2.53;;
16478;SDS011;8350;52.316;10.530;2023-04-01T03:33:48;6.00;;;2.30;;
16478;SDS011;8350;52.316;10.530;2023-04-01T03:36:15;4.07;;;2.28;;
16478;SDS011;8350;52.316;10.530;2023-04-01T03:38:43;3.08;;;1.70;;
16478;SDS011;8350;52.316;10.530;2023-04-01T03:41:11;5.07;;;1.80;;
16478;SDS011;8350;52.316;10.530;2023-04-01T03:43:39;2.25;;;1.35;;
16478;SDS011;8350;52.316;10.530;2023-04-01T03:46:06;2.17;;;1.40;;
16478;SDS011;8350;52.316;10.530;2023-04-01T03:48:34;9.82;;;2.17;;
16478;SDS011;8350;52.316;10.530;2023-04-01T03:51:01;6.63;;;2.20;;
16478;SDS011;8350;52.316;10.530;2023-04-01T03:53:32;1.73;;;1.25;;
16478;SDS011;8350;52.316;10.530;2023-04-01T03:56:02;3.58;;;1.50;;
16478;SDS011;8350;52.316;10.530;2023-04-01T03:58:30;2.38;;;1.63;;
16478;SDS011;8350;52.316;10.530;2023-04-01T04:00:57;3.70;;;1.38;;
16478;SDS011;8350;52.316;10.530;2023-04-01T04:03:25;3.28;;;1.48;;
16478;SDS011;8350;52.316;10.530;2023-04-01T04:05:54;3.20;;;1.65;;
16478;SDS011;8350;52.316;10.530;2023-04-01T04:08:21;3.72;;;1.70;;
16478;SDS011;8350;52.316;10.530;2023-04-01T04:10:54;4.28;;;1.40;;
16478;SDS011;8350;52.316;10.530;2023-04-01T04:13:24;4.40;;;1.50;;
16478;SDS011;8350;52.316;10.530;2023-04-01T04:15:51;3.83;;;1.55;;
16478;SDS011;8350;52.316;10.530;2023-04-01T04:18:18;3.38;;;1.30;;
16478;SDS011;8350;52.316;10.530;2023-04-01T04:20:46;3.78;;;1.35;;
16478;SDS011;8350;52.316;10.530;2023-04-01T04:23:17;2.58;;;1.85;;
16478;SDS011;8350;52.316;10.530;2023-04-01T04:25:52;2.90;;;1.30;;
16478;SDS011;8350;52.316;10.530;2023-04-01T04:28:20;2.13;;;1.42;;
16478;SDS011;8350;52.316;10.530;2023-04-01T04:30:48;1.58;;;1.30;;
16478;SDS011;8350;52.316;10.530;2023-04-01T04:33:15;1.67;;;1.17;;
16478;SDS011;8350;52.316;10.530;2023-04-01T04:35:42;2.42;;;1.55;;
16478;SDS011;8350;52.316;10.530;2023-04-01T04:38:12;2.53;;;1.48;;
16478;SDS011;8350;52.316;10.530;2023-04-01T04:40:41;3.97;;;1.40;;
16478;SDS011;8350;52.316;10.530;2023-04-01T04:43:10;3.00;;;1.27;;
16478;SDS011;8350;52.316;10.530;2023-04-01T04:45:37;6.00;;;1.83;;
16478;SDS011;8350;52.316;10.530;2023-04-01T04:48:05;3.03;;;1.30;;
16478;SDS011;8350;52.316;10.530;2023-04-01T04:50:33;4.10;;;1.80;;
16478;SDS011;8350;52.316;10.530;2023-04-01T04:53:00;5.18;;;1.55;;
16478;SDS011;8350;52.316;10.530;2023-04-01T04:55:27;3.28;;;1.90;;
16478;SDS011;8350;52.316;10.530;2023-04-01T04:57:56;4.25;;;1.48;;
16478;SDS011;8350;52.316;10.530;2023-04-01T05:00:23;3.17;;;1.67;;
16478;SDS011;8350;52.316;10.530;2023-04-01T05:02:50;1.95;;;1.50;;
16478;SDS011;8350;52.316;10.530;2023-04-01T05:05:17;3.75;;;1.52;;
16478;SDS011;8350;52.316;10.530;2023-04-01T05:07:47;2.75;;;1.75;;
16478;SDS011;8350;52.316;10.530;2023-04-01T05:10:14;2.58;;;1.45;;
16478;SDS011;8350;52.316;10.530;2023-04-01T05:12:41;3.85;;;1.63;;
16478;SDS011;8350;52.316;10.530;2023-04-01T05:15:10;6.78;;;1.95;;
16478;SDS011;8350;52.316;10.530;2023-04-01T05:17:37;4.38;;;1.50;;
16478;SDS011;8350;52.316;10.530;2023-04-01T05:20:06;2.63;;;1.30;;
16478;SDS011;8350;52.316;10.530;2023-04-01T05:22:34;3.70;;;1.30;;
16478;SDS011;8350;52.316;10.530;2023-04-01T05:25:01;3.10;;;1.30;;
16478;SDS011;8350;52.316;10.530;2023-04-01T05:27:28;1.95;;;1.20;;
16478;SDS011;8350;52.316;10.530;2023-04-01T05:29:57;4.45;;;1.50;;
16478;SDS011;8350;52.316;10.530;2023-04-01T05:32:30;2.00;;;1.20;;
16478;SDS011;8350;52.316;10.530;2023-04-01T05:34:57;2.08;;;1.13;;
16478;SDS011;8350;52.316;10.530;2023-04-01T05:37:24;2.88;;;1.42;;
16478;SDS011;8350;52.316;10.530;2023-04-01T05:40:01;2.63;;;1.40;;
16478;SDS011;8350;52.316;10.530;2023-04-01T05:42:28;2.90;;;1.40;;
16478;SDS011;8350;52.316;10.530;2023-04-01T05:44:56;2.67;;;1.60;;
16478;SDS011;8350;52.316;10.530;2023-04-01T05:47:36;2.67;;;1.50;;
16478;SDS011;8350;52.316;10.530;2023-04-01T05:50:14;2.95;;;1.45;;
16478;SDS011;8350;52.316;10.530;2023-04-01T05:52:41;2.35;;;1.23;;
16478;SDS011;8350;52.316;10.530;2023-04-01T05:55:09;1.95;;;1.02;;
16478;SDS011;8350;52.316;10.530;2023-04-01T05:57:36;2.08;;;1.10;;
16478;SDS011;8350;52.316;10.530;2023-04-01T06:00:03;2.05;;;1.23;;
16478;SDS011;8350;52.316;10.530;2023-04-01T06:02:31;2.65;;;1.25;;
16478;SDS011;8350;52.316;10.530;2023-04-01T06:05:02;2.25;;;1.38;;
16478;SDS011;8350;52.316;10.530;2023-04-01T06:07:37;2.70;;;1.75;;
16478;SDS011;8350;52.316;10.530;2023-04-01T06:10:09;1.77;;;1.30;;
16478;SDS011;8350;52.316;10.530;2023-04-01T06:12:40;1.67;;;1.10;;
16478;SDS011;8350;52.316;10.530;2023-04-01T06:15:23;4.13;;;1.30;;
16478;SDS011;8350;52.316;10.530;2023-04-01T06:20:56;3.10;;;1.20;;
16478;SDS011;8350;52.316;10.530;2023-04-01T06:23:33;2.60;;;1.83;;
16478;SDS011;8350;52.316;10.530;2023-04-01T06:26:17;2.40;;;1.08;;
16478;SDS011;8350;52.316;10.530;2023-04-01T06:32:16;3.67;;;1.52;;
16478;SDS011;8350;52.316;10.530;2023-04-01T06:34:57;2.40;;;1.20;;
16478;SDS011;8350;52.316;10.530;2023-04-01T06:37:49;2.83;;;1.20;;
16478;SDS011;8350;52.316;10.530;2023-04-01T06:40:38;3.30;;;1.20;;
16478;SDS011;8350;52.316;10.530;2023-04-01T06:43:15;2.80;;;1.00;;
16478;SDS011;8350;52.316;10.530;2023-04-01T06:45:49;4.32;;;1.30;;
16478;SDS011;8350;52.316;10.530;2023-04-01T06:48:25;3.58;;;1.13;;
16478;SDS011;8350;52.316;10.530;2023-04-01T06:51:10;2.50;;;1.27;;
16478;SDS011;8350;52.316;10.530;2023-04-01T06:53:51;5.05;;;1.23;;
16478;SDS011;8350;52.316;10.530;2023-04-01T06:56:23;2.28;;;1.40;;
16478;SDS011;8350;52.316;10.530;2023-04-01T06:58:53;1.10;;;1.00;;
16478;SDS011;8350;52.316;10.530;2023-04-01T07:01:23;3.05;;;1.33;;
16478;SDS011;8350;52.316;10.530;2023-04-01T07:03:55;1.42;;;1.15;;
16478;SDS011;8350;52.316;10.530;2023-04-01T07:06:26;3.90;;;1.00;;
16478;SDS011;8350;52.316;10.530;2023-04-01T07:09:00;2.63;;;1.13;;
16478;SDS011;8350;52.316;10.530;2023-04-01T07:11:31;1.10;;;0.98;;
16478;SDS011;8350;52.316;10.530;2023-04-01T07:14:03;2.58;;;1.40;;
16478;SDS011;8350;52.316;10.530;2023-04-01T07:16:37;2.58;;;1.10;;
16478;SDS011;8350;52.316;10.530;2023-04-01T07:19:12;1.92;;;1.08;;
16478;SDS011;8350;52.316;10.530;2023-04-01T07:21:43;2.85;;;1.00;;
16478;SDS011;8350;52.316;10.530;2023-04-01T07:27:02;2.95;;;0.93;;
16478;SDS011;8350;52.316;10.530;2023-04-01T07:29:35;2.15;;;0.95;;
16478;SDS011;8350;52.316;10.530;2023-04-01T07:32:20;2.42;;;0.95;;
16478;SDS011;8350;52.316;10.530;2023-04-01T07:37:43;1.13;;;0.60;;
16478;SDS011;8350;52.316;10.530;2023-04-01T07:40:21;1.38;;;0.98;;
16478;SDS011;8350;52.316;10.530;2023-04-01T07:43:03;2.53;;;1.10;;
16478;SDS011;8350;52.316;10.530;2023-04-01T07:45:51;1.30;;;0.95;;
16478;SDS011;8350;52.316;10.530;2023-04-01T07:48:24;3.65;;;1.02;;
16478;SDS011;8350;52.316;10.530;2023-04-01T07:50:57;1.75;;;0.70;;
16478;SDS011;8350;52.316;10.530;2023-04-01T07:53:30;2.40;;;0.63;;
16478;SDS011;8350;52.316;10.530;2023-04-01T07:56:07;2.30;;;1.10;;
16478;SDS011;8350;52.316;10.530;2023-04-01T07:58:39;1.83;;;0.70;;
16478;SDS011;8350;52.316;10.530;2023-04-01T08:01:18;1.27;;;0.82;;
16478;SDS011;8350;52.316;10.530;2023-04-01T08:03:55;4.20;;;0.95;;
16478;SDS011;8350;52.316;10.530;2023-04-01T08:06:43;2.05;;;0.65;;
16478;SDS011;8350;52.316;10.530;2023-04-01T08:09:18;1.60;;;0.70;;
16478;SDS011;8350;52.316;10.530;2023-04-01T08:11:57;1.23;;;0.50;;
16478;SDS011;8350;52.316;10.530;2023-04-01T08:14:36;1.92;;;0.75;;
16478;SDS011;8350;52.316;10.530;2023-04-01T08:17:15;1.98;;;0.88;;
16478;SDS011;8350;52.316;10.530;2023-04-01T08:19:51;2.13;;;0.82;;
16478;SDS011;8350;52.316;10.530;2023-04-01T08:22:37;1.35;;;1.15;;
16478;SDS011;8350;52.316;10.530;2023-04-01T08:25:09;2.28;;;0.73;;
16478;SDS011;8350;52.316;10.530;2023-04-01T08:27:46;0.80;;;0.70;;
16478;SDS011;8350;52.316;10.530;2023-04-01T08:30:18;1.52;;;0.82;;
16478;SDS011;8350;52.316;10.530;2023-04-01T08:32:47;1.85;;;0.93;;
16478;SDS011;8350;52.316;10.530;2023-04-01T08:35:20;1.02;;;0.80;;
16478;SDS011;8350;52.316;10.530;2023-04-01T08:37:53;1.23;;;0.80;;
16478;SDS011;8350;52.316;10.530;2023-04-01T08:40:33;1.63;;;0.73;;
16478;SDS011;8350;52.316;10.530;2023-04-01T08:43:29;1.15;;;0.70;;
16478;SDS011;8350;52.316;10.530;2023-04-01T08:46:15;3.30;;;0.82;;
16478;SDS011;8350;52.316;10.530;2023-04-01T08:49:01;2.80;;;0.70;;
16478;SDS011;8350;52.316;10.530;2023-04-01T08:51:45;1.13;;;0.65;;
16478;SDS011;8350;52.316;10.530;2023-04-01T08:54:46;1.52;;;0.55;;
16478;SDS011;8350;52.316;10.530;2023-04-01T08:57:37;1.67;;;0.70;;
16478;SDS011;8350;52.316;10.530;2023-04-01T09:00:15;0.70;;;0.50;;
16478;SDS011;8350;52.316;10.530;2023-04-01T09:08:51;0.73;;;0.50;;
16478;SDS011;8350;52.316;10.530;2023-04-01T09:11:33;1.73;;;0.57;;
16478;SDS011;8350;52.316;10.530;2023-04-01T09:14:17;1.77;;;0.65;;
16478;SDS011;8350;52.316;10.530;2023-04-01T09:20:19;1.63;;;1.00;;
16478;SDS011;8350;52.316;10.530;2023-04-01T09:23:12;1.58;;;1.00;;
16478;SDS011;8350;52.316;10.530;2023-04-01T09:26:07;1.48;;;1.02;;
16478;SDS011;8350;52.316;10.530;2023-04-01T09:28:48;1.83;;;1.08;;
16478;SDS011;8350;52.316;10.530;2023-04-01T09:31:23;2.47;;;1.33;;
16478;SDS011;8350;52.316;10.530;2023-04-01T09:37:13;1.50;;;1.25;;
16478;SDS011;8350;52.316;10.530;2023-04-01T09:39:49;3.42;;;1.20;;
16478;SDS011;8350;52.316;10.530;2023-04-01T09:42:41;2.22;;;1.30;;
16478;SDS011;8350;52.316;10.530;2023-04-01T09:45:15;1.73;;;1.60;;
16478;SDS011;8350;52.316;10.530;2023-04-01T09:48:02;2.80;;;1.50;;
16478;SDS011;8350;52.316;10.530;2023-04-01T09:50:39;2.80;;;2.00;;
16478;SDS011;8350;52.316;10.530;2023-04-01T09:53:25;2.75;;;1.50;;
16478;SDS011;8350;52.316;10.530;2023-04-01T10:02:27;1.42;;;1.20;;
16478;SDS011;8350;52.316;10.530;2023-04-01T10:05:27;1.42;;;1.10;;
16478;SDS011;8350;52.316;10.530;2023-04-01T10:23:20;2.17;;;1.00;;
16478;SDS011;8350;52.316;10.530;2023-04-01T10:28:58;2.22;;;1.20;;
16478;SDS011;8350;52.316;10.530;2023-04-01T10:40:48;2.45;;;1.00;;
16478;SDS011;8350;52.316;10.530;2023-04-01T10:49:54;2.15;;;1.00;;
16478;SDS011;8350;52.316;10.530;2023-04-01T10:56:00;1.88;;;1.00;;
16478;SDS011;8350;52.316;10.530;2023-04-01T10:59:00;1.52;;;0.90;;
16478;SDS011;8350;52.316;10.530;2023-04-01T11:05:19;1.33;;;0.73;;
16478;SDS011;8350;52.316;10.530;2023-04-01T11:08:15;0.52;;;0.50;;
16478;SDS011;8350;52.316;10.530;2023-04-01T11:11:20;1.48;;;0.95;;
16478;SDS011;8350;52.316;10.530;2023-04-01T11:26:55;1.30;;;0.77;;
16478;SDS011;8350;52.316;10.530;2023-04-01T11:29:42;1.63;;;0.75;;
16478;SDS011;8350;52.316;10.530;2023-04-01T11:32:26;1.48;;;1.00;;
16478;SDS011;8350;52.316;10.530;2023-04-01T11:41:10;1.85;;;1.17;;
16478;SDS011;8350;52.316;10.530;2023-04-01T11:43:55;1.23;;;0.80;;
16478;SDS011;8350;52.316;10.530;2023-04-01T11:46:36;0.90;;;0.80;;
16478;SDS011;8350;52.316;10.530;2023-04-01T11:49:17;1.45;;;1.20;;
16478;SDS011;8350;52.316;10.530;2023-04-01T11:52:01;2.15;;;1.10;;
16478;SDS011;8350;52.316;10.530;2023-04-01T11:54:43;0.95;;;0.85;;
16478;SDS011;8350;52.316;10.530;2023-04-01T11:57:31;2.35;;;1.10;;
16478;SDS011;8350;52.316;10.530;2023-04-01T12:00:19;1.52;;;1.10;;
16478;SDS011;8350;52.316;10.530;2023-04-01T12:03:09;1.50;;;1.20;;
16478;SDS011;8350;52.316;10.530;2023-04-01T12:05:48;1.45;;;0.90;;
16478;SDS011;8350;52.316;10.530;2023-04-01T12:08:23;1.92;;;0.80;;
16478;SDS011;8350;52.316;10.530;2023-04-01T12:11:09;1.75;;;0.80;;
16478;SDS011;8350;52.316;10.530;2023-04-01T12:13:48;1.00;;;0.90;;
16478;SDS011;8350;52.316;10.530;2023-04-01T12:16:23;2.17;;;1.20;;
16478;SDS011;8350;52.316;10.530;2023-04-01T12:18:59;1.45;;;1.05;;
16478;SDS011;8350;52.316;10.530;2023-04-01T12:21:32;2.00;;;0.90;;
16478;SDS011;8350;52.316;10.530;2023-04-01T12:24:12;1.20;;;0.90;;
16478;SDS011;8350;52.316;10.530;2023-04-01T12:27:12;1.60;;;1.10;;
16478;SDS011;8350;52.316;10.530;2023-04-01T12:29:58;1.00;;;0.90;;
16478;SDS011;8350;52.316;10.530;2023-04-01T12:32:41;1.27;;;0.70;;
16478;SDS011;8350;52.316;10.530;2023-04-01T12:38:06;1.40;;;1.27;;
16478;SDS011;8350;52.316;10.530;2023-04-01T12:40:51;1.10;;;0.93;;
16478;SDS011;8350;52.316;10.530;2023-04-01T12:46:38;0.98;;;0.70;;
16478;SDS011;8350;52.316;10.530;2023-04-01T12:49:22;1.00;;;0.88;;
16478;SDS011;8350;52.316;10.530;2023-04-01T12:52:04;1.30;;;0.82;;
16478;SDS011;8350;52.316;10.530;2023-04-01T12:58:00;1.40;;;0.60;;
16478;SDS011;8350;52.316;10.530;2023-04-01T13:00:53;2.00;;;1.00;;
16478;SDS011;8350;52.316;10.530;2023-04-01T13:03:53;1.40;;;1.20;;
16478;SDS011;8350;52.316;10.530;2023-04-01T13:06:53;2.78;;;1.30;;
16478;SDS011;8350;52.316;10.530;2023-04-01T13:09:36;2.15;;;1.67;;
16478;SDS011;8350;52.316;10.530;2023-04-01T13:15:06;3.45;;;1.40;;
16478;SDS011;8350;52.316;10.530;2023-04-01T13:17:48;1.52;;;1.15;;
16478;SDS011;8350;52.316;10.530;2023-04-01T13:20:23;1.83;;;1.15;;
16478;SDS011;8350;52.316;10.530;2023-04-01T13:23:04;1.75;;;0.90;;
16478;SDS011;8350;52.316;10.530;2023-04-01T13:25:38;2.20;;;1.30;;
16478;SDS011;8350;52.316;10.530;2023-04-01T13:28:10;1.05;;;0.90;;
16478;SDS011;8350;52.316;10.530;2023-04-01T13:30:43;3.20;;;1.30;;
16478;SDS011;8350;52.316;10.530;2023-04-01T13:33:17;1.00;;;0.70;;
16478;SDS011;8350;52.316;10.530;2023-04-01T13:35:56;1.30;;;1.05;;
16478;SDS011;8350;52.316;10.530;2023-04-01T13:38:51;1.50;;;0.95;;
16478;SDS011;8350;52.316;10.530;2023-04-01T13:41:35;1.60;;;1.30;;
16478;SDS011;8350;52.316;10.530;2023-04-01T13:44:13;1.50;;;1.40;;
16478;SDS011;8350;52.316;10.530;2023-04-01T13:46:48;1.42;;;1.33;;
16478;SDS011;8350;52.316;10.530;2023-04-01T13:52:57;1.85;;;1.60;;
16478;SDS011;8350;52.316;10.530;2023-04-01T13:55:54;1.35;;;1.25;;
16478;SDS011;8350;52.316;10.530;2023-04-01T13:58:35;0.90;;;0.90;;
16478;SDS011;8350;52.316;10.530;2023-04-01T14:01:13;1.00;;;1.00;;
16478;SDS011;8350;52.316;10.530;2023-04-01T14:06:52;1.45;;;1.30;;
16478;SDS011;8350;52.316;10.530;2023-04-01T14:09:34;1.10;;;1.00;;
16478;SDS011;8350;52.316;10.530;2023-04-01T14:12:13;1.35;;;1.10;;
16478;SDS011;8350;52.316;10.530;2023-04-01T14:14:55;1.42;;;1.20;;
16478;SDS011;8350;52.316;10.530;2023-04-01T14:17:48;1.10;;;1.00;;
16478;SDS011;8350;52.316;10.530;2023-04-01T14:20:30;2.80;;;2.00;;
16478;SDS011;8350;52.316;10.530;2023-04-01T14:23:25;2.25;;;2.03;;
16478;SDS011;8350;52.316;10.530;2023-04-01T14:29:14;1.83;;;1.73;;
16478;SDS011;8350;52.316;10.530;2023-04-01T14:32:06;1.60;;;1.50;;
16478;SDS011;8350;52.316;10.530;2023-04-01T14:34:40;1.73;;;1.17;;
16478;SDS011;8350;52.316;10.530;2023-04-01T14:37:23;1.00;;;1.00;;
16478;SDS011;8350;52.316;10.530;2023-04-01T14:40:26;1.27;;;1.17;;
16478;SDS011;8350;52.316;10.530;2023-04-01T14:42:58;1.90;;;1.30;;
16478;SDS011;8350;52.316;10.530;2023-04-01T14:46:17;2.28;;;1.58;;
16478;SDS011;8350;52.316;10.530;2023-04-01T14:48:59;2.05;;;1.60;;
16478;SDS011;8350;52.316;10.530;2023-04-01T14:51:31;1.58;;;1.48;;
16478;SDS011;8350;52.316;10.530;2023-04-01T14:54:04;1.63;;;1.52;;
16478;SDS011;8350;52.316;10.530;2023-04-01T14:56:34;2.08;;;1.88;;
16478;SDS011;8350;52.316;10.530;2023-04-01T14:59:06;1.95;;;1.70;;
16478;SDS011;8350;52.316;10.530;2023-04-01T15:01:41;3.70;;;1.98;;
16478;SDS011;8350;52.316;10.530;2023-04-01T15:13:31;1.77;;;1.67;;
16478;SDS011;8350;52.316;10.530;2023-04-01T15:16:27;1.85;;;1.60;;
16478;SDS011;8350;52.316;10.530;2023-04-01T15:19:03;1.95;;;1.60;;
16478;SDS011;8350;52.316;10.530;2023-04-01T15:21:56;2.38;;;2.17;;
16478;SDS011;8350;52.316;10.530;2023-04-01T15:24:56;1.77;;;1.67;;
16478;SDS011;8350;52.316;10.530;2023-04-01T15:27:34;1.70;;;1.60;;
16478;SDS011;8350;52.316;10.530;2023-04-01T15:30:20;3.58;;;1.90;;
16478;SDS011;8350;52.316;10.530;2023-04-01T15:35:52;2.20;;;2.00;;
16478;SDS011;8350;52.316;10.530;2023-04-01T15:38:31;2.00;;;1.90;;
16478;SDS011;8350;52.316;10.530;2023-04-01T15:41:03;2.40;;;2.20;;
16478;SDS011;8350;52.316;10.530;2023-04-01T15:43:40;2.30;;;1.92;;
16478;SDS011;8350;52.316;10.530;2023-04-01T15:46:09;2.65;;;2.28;;
16478;SDS011;8350;52.316;10.530;2023-04-01T15:48:52;2.33;;;2.13;;
16478;SDS011;8350;52.316;10.530;2023-04-01T15:51:32;1.90;;;1.67;;
16478;SDS011;8350;52.316;10.530;2023-04-01T15:54:27;1.80;;;1.60;;
16478;SDS011;8350;52.316;10.530;2023-04-01T16:00:06;2.10;;;1.92;;
16478;SDS011;8350;52.316;10.530;2023-04-01T16:02:42;2.53;;;1.73;;
16478;SDS011;8350;52.316;10.530;2023-04-01T16:05:24;1.90;;;1.60;;
16478;SDS011;8350;52.316;10.530;2023-04-01T16:08:09;1.92;;;1.77;;
16478;SDS011;8350;52.316;10.530;2023-04-01T16:10:52;1.20;;;1.10;;
16478;SDS011;8350;52.316;10.530;2023-04-01T16:13:32;2.03;;;1.20;;
16478;SDS011;8350;52.316;10.530;2023-04-01T16:16:14;1.58;;;1.00;;
16478;SDS011;8350;52.316;10.530;2023-04-01T16:18:56;1.27;;;1.17;;
16478;SDS011;8350;52.316;10.530;2023-04-01T16:21:40;0.82;;;0.82;;
16478;SDS011;8350;52.316;10.530;2023-04-01T16:24:16;0.93;;;0.90;;
16478;SDS011;8350;52.316;10.530;2023-04-01T16:26:50;1.20;;;1.10;;
16478;SDS011;8350;52.316;10.530;2023-04-01T16:29:26;1.25;;;1.15;;
16478;SDS011;8350;52.316;10.530;2023-04-01T16:32:12;1.40;;;1.13;;
16478;SDS011;8350;52.316;10.530;2023-04-01T16:34:45;1.30;;;1.20;;
16478;SDS011;8350;52.316;10.530;2023-04-01T16:37:27;2.40;;;1.15;;
16478;SDS011;8350;52.316;10.530;2023-04-01T16:40:02;1.20;;;1.10;;
16478;SDS011;8350;52.316;10.530;2023-04-01T16:42:43;1.08;;;0.98;;
16478;SDS011;8350;52.316;10.530;2023-04-01T16:45:21;1.17;;;1.08;;
16478;SDS011;8350;52.316;10.530;2023-04-01T16:47:58;0.85;;;0.85;;
16478;SDS011;8350;52.316;10.530;2023-04-01T16:50:39;1.40;;;1.30;;
16478;SDS011;8350;52.316;10.530;2023-04-01T16:53:16;2.30;;;1.17;;
16478;SDS011;8350;52.316;10.530;2023-04-01T16:55:49;1.20;;;1.10;;
16478;SDS011;8350;52.316;10.530;2023-04-01T16:58:26;1.30;;;1.20;;
16478;SDS011;8350;52.316;10.530;2023-04-01T17:00:58;1.45;;;1.33;;
16478;SDS011;8350;52.316;10.530;2023-04-01T17:03:30;1.75;;;1.10;;
16478;SDS011;8350;52.316;10.530;2023-04-01T17:06:03;1.67;;;1.40;;
16478;SDS011;8350;52.316;10.530;2023-04-01T17:08:53;1.38;;;1.27;;
16478;SDS011;8350;52.316;10.530;2023-04-01T17:11:49;3.03;;;1.77;;
16478;SDS011;8350;52.316;10.530;2023-04-01T17:14:23;2.40;;;1.50;;
16478;SDS011;8350;52.316;10.530;2023-04-01T17:20:02;2.10;;;1.60;;
16478;SDS011;8350;52.316;10.530;2023-04-01T17:22:48;2.00;;;1.77;;
16478;SDS011;8350;52.316;10.530;2023-04-01T17:28:18;1.50;;;1.40;;
16478;SDS011;8350;52.316;10.530;2023-04-01T17:30:57;1.42;;;1.33;;
16478;SDS011;8350;52.316;10.530;2023-04-01T17:33:31;1.80;;;1.70;;
16478;SDS011;8350;52.316;10.530;2023-04-01T17:36:32;2.47;;;2.17;;
16478;SDS011;8350;52.316;10.530;2023-04-01T17:42:06;1.60;;;1.50;;
16478;SDS011;8350;52.316;10.530;2023-04-01T17:44:43;2.10;;;1.90;;
16478;SDS011;8350;52.316;10.530;2023-04-01T17:47:33;1.90;;;1.80;;
16478;SDS011;8350;52.316;10.530;2023-04-01T17:50:19;1.60;;;1.50;;
16478;SDS011;8350;52.316;10.530;2023-04-01T17:52:59;2.72;;;2.20;;
16478;SDS011;8350;52.316;10.530;2023-04-01T17:55:45;1.85;;;1.70;;
16478;SDS011;8350;52.316;10.530;2023-04-01T17:58:20;1.88;;;1.73;;
16478;SDS011;8350;52.316;10.530;2023-04-01T18:00:56;2.40;;;1.90;;